sensor_id;sensor_type;location;lat;lon;timestamp;P1;durP1;ratioP1;P2;durP2;ratioP2
64252;SDS011;50592;52.958;-7.470;2024-02-23T00:02:17;3.67;;;0.55;;
64252;SDS011;50592;52.958;-7.470;2024-02-23T00:04:55;3.15;;;0.65;;
64252;SDS011;50592;52.958;-7.470;2024-02-23T00:07:23;4.88;;;0.75;;
64252;SDS011;50592;52.958;-7.470;2024-02-23T00:10:12;5.10;;;0.60;;
64252;SDS011;50592;52.958;-7.470;2024-02-23T00:12:54;3.15;;;0.60;;
64252;SDS011;50592;52.958;-7.470;2024-02-23T00:15:23;5.28;;;0.80;;
64252;SDS011;50592;52.958;-7.470;2024-02-23T00:17:53;7.13;;;0.90;;
64252;SDS011;50592;52.958;-7.470;2024-02-23T00:20:18;8.43;;;0.70;;
64252;SDS011;50592;52.958;-7.470;2024-02-23T00:22:53;4.75;;;0.70;;
64252;SDS011;50592;52.958;-7.470;2024-02-23T00:25:42;5.07;;;0.75;;
64252;SDS011;50592;52.958;-7.470;2024-02-23T00:28:54;6.07;;;0.77;;
64252;SDS011;50592;52.958;-7.470;2024-02-23T00:31:36;10.85;;;1.25;;
64252;SDS011;50592;52.958;-7.470;2024-02-23T00:34:08;4.50;;;0.50;;
64252;SDS011;50592;52.958;-7.470;2024-02-23T00:36:41;6.65;;;0.70;;
64252;SDS011;50592;52.958;-7.470;2024-02-23T00:39:20;3.20;;;0.75;;
64252;SDS011;50592;52.958;-7.470;2024-02-23T00:41:46;5.60;;;0.40;;
64252;SDS011;50592;52.958;-7.470;2024-02-23T00:44:14;5.35;;;0.75;;
64252;SDS011;50592;52.958;-7.470;2024-02-23T00:46:46;5.68;;;0.73;;
64252;SDS011;50592;52.958;-7.470;2024-02-23T00:49:33;2.30;;;0.68;;
64252;SDS011;50592;52.958;-7.470;2024-02-23T00:51:59;6.03;;;0.95;;
64252;SDS011;50592;52.958;-7.470;2024-02-23T00:54:33;3.30;;;0.80;;
64252;SDS011;50592;52.958;-7.470;2024-02-23T00:57:02;7.95;;;0.93;;
64252;SDS011;50592;52.958;-7.470;2024-02-23T00:59:31;5.50;;;0.95;;
64252;SDS011;50592;52.958;-7.470;2024-02-23T01:01:59;7.45;;;0.80;;
64252;SDS011;50592;52.958;-7.470;2024-02-23T01:04:30;7.55;;;0.77;;
64252;SDS011;50592;52.958;-7.470;2024-02-23T01:06:57;7.70;;;0.82;;
64252;SDS011;50592;52.958;-7.470;2024-02-23T01:09:39;5.22;;;0.60;;
64252;SDS011;50592;52.958;-7.470;2024-02-23T01:12:06;7.00;;;0.80;;
64252;SDS011;50592;52.958;-7.470;2024-02-23T01:14:32;6.45;;;0.68;;
64252;SDS011;50592;52.958;-7.470;2024-02-23T01:16:58;9.48;;;0.80;;
64252;SDS011;50592;52.958;-7.470;2024-02-23T01:26:23;13.25;;;1.10;;
64252;SDS011;50592;52.958;-7.470;2024-02-23T01:28:52;3.05;;;0.88;;
64252;SDS011;50592;52.958;-7.470;2024-02-23T01:31:22;11.10;;;1.20;;
64252;SDS011;50592;52.958;-7.470;2024-02-23T01:33:47;3.08;;;0.73;;
64252;SDS011;50592;52.958;-7.470;2024-02-23T01:36:33;7.03;;;0.90;;
64252;SDS011;50592;52.958;-7.470;2024-02-23T01:39:15;4.05;;;0.50;;
64252;SDS011;50592;52.958;-7.470;2024-02-23T01:41:49;4.65;;;0.50;;
64252;SDS011;50592;52.958;-7.470;2024-02-23T01:44:36;3.30;;;0.60;;
64252;SDS011;50592;52.958;-7.470;2024-02-23T01:47:11;6.22;;;0.70;;
64252;SDS011;50592;52.958;-7.470;2024-02-23T01:49:40;4.93;;;0.70;;
64252;SDS011;50592;52.958;-7.470;2024-02-23T01:52:23;6.43;;;0.50;;
64252;SDS011;50592;52.958;-7.470;2024-02-23T01:54:55;3.47;;;0.75;;
64252;SDS011;50592;52.958;-7.470;2024-02-23T01:57:22;6.22;;;0.68;;
64252;SDS011;50592;52.958;-7.470;2024-02-23T02:04:42;3.50;;;0.43;;
64252;SDS011;50592;52.958;-7.470;2024-02-23T02:19:50;4.43;;;0.40;;
64252;SDS011;50592;52.958;-7.470;2024-02-23T02:22:48;2.50;;;0.20;;
64252;SDS011;50592;52.958;-7.470;2024-02-23T02:25:57;0.90;;;0.20;;
64252;SDS011;50592;52.958;-7.470;2024-02-23T02:29:50;3.55;;;0.50;;
64252;SDS011;50592;52.958;-7.470;2024-02-23T02:33:54;1.80;;;0.30;;
64252;SDS011;50592;52.958;-7.470;2024-02-23T02:40:33;2.65;;;0.40;;
64252;SDS011;50592;52.958;-7.470;2024-02-23T02:46:46;5.88;;;0.70;;
64252;SDS011;50592;52.958;-7.470;2024-02-23T02:49:14;1.42;;;0.30;;
64252;SDS011;50592;52.958;-7.470;2024-02-23T02:51:46;0.70;;;0.20;;
64252;SDS011;50592;52.958;-7.470;2024-02-23T03:00:00;0.47;;;0.20;;
64252;SDS011;50592;52.958;-7.470;2024-02-23T03:03:07;2.08;;;0.13;;
64252;SDS011;50592;52.958;-7.470;2024-02-23T03:05:43;1.08;;;0.20;;
64252;SDS011;50592;52.958;-7.470;2024-02-23T03:12:03;0.65;;;0.15;;
64252;SDS011;50592;52.958;-7.470;2024-02-23T03:18:12;2.38;;;0.20;;
64252;SDS011;50592;52.958;-7.470;2024-02-23T03:20:42;1.75;;;0.10;;
64252;SDS011;50592;52.958;-7.470;2024-02-23T03:23:08;2.47;;;0.10;;
64252;SDS011;50592;52.958;-7.470;2024-02-23T03:25:34;1.65;;;0.40;;
64252;SDS011;50592;52.958;-7.470;2024-02-23T03:28:00;1.55;;;0.90;;
64252;SDS011;50592;52.958;-7.470;2024-02-23T03:30:29;0.77;;;0.30;;
64252;SDS011;50592;52.958;-7.470;2024-02-23T03:32:55;1.55;;;0.10;;
64252;SDS011;50592;52.958;-7.470;2024-02-23T03:35:26;0.77;;;0.17;;
64252;SDS011;50592;52.958;-7.470;2024-02-23T03:37:54;1.17;;;0.15;;
64252;SDS011;50592;52.958;-7.470;2024-02-23T03:40:23;1.63;;;0.15;;
64252;SDS011;50592;52.958;-7.470;2024-02-23T03:43:21;3.10;;;0.30;;
64252;SDS011;50592;52.958;-7.470;2024-02-23T03:45:52;2.47;;;0.30;;
64252;SDS011;50592;52.958;-7.470;2024-02-23T03:48:44;0.57;;;0.32;;
64252;SDS011;50592;52.958;-7.470;2024-02-23T04:13:52;5.75;;;0.50;;
64252;SDS011;50592;52.958;-7.470;2024-02-23T04:17:02;5.55;;;1.00;;
64252;SDS011;50592;52.958;-7.470;2024-02-23T04:26:02;5.10;;;0.45;;
64252;SDS011;50592;52.958;-7.470;2024-02-23T04:28:44;4.00;;;0.45;;
64252;SDS011;50592;52.958;-7.470;2024-02-23T04:35:37;4.28;;;0.70;;
64252;SDS011;50592;52.958;-7.470;2024-02-23T04:38:24;1.17;;;0.23;;
64252;SDS011;50592;52.958;-7.470;2024-02-23T04:41:18;5.38;;;0.63;;
64252;SDS011;50592;52.958;-7.470;2024-02-23T04:43:51;3.92;;;0.52;;
64252;SDS011;50592;52.958;-7.470;2024-02-23T04:46:34;2.40;;;0.65;;
64252;SDS011;50592;52.958;-7.470;2024-02-23T04:51:59;3.77;;;0.50;;
64252;SDS011;50592;52.958;-7.470;2024-02-23T04:54:30;2.47;;;0.30;;
64252;SDS011;50592;52.958;-7.470;2024-02-23T04:58:05;1.13;;;0.55;;
64252;SDS011;50592;52.958;-7.470;2024-02-23T05:00:50;3.90;;;0.63;;
64252;SDS011;50592;52.958;-7.470;2024-02-23T05:05:54;4.05;;;0.32;;
64252;SDS011;50592;52.958;-7.470;2024-02-23T05:11:15;4.72;;;0.43;;
64252;SDS011;50592;52.958;-7.470;2024-02-23T05:13:41;1.58;;;0.30;;
64252;SDS011;50592;52.958;-7.470;2024-02-23T05:17:03;0.50;;;0.20;;
64252;SDS011;50592;52.958;-7.470;2024-02-23T05:19:30;3.45;;;0.38;;
64252;SDS011;50592;52.958;-7.470;2024-02-23T05:22:04;3.20;;;0.30;;
64252;SDS011;50592;52.958;-7.470;2024-02-23T05:28:28;2.67;;;0.20;;
64252;SDS011;50592;52.958;-7.470;2024-02-23T05:30:58;2.50;;;0.30;;
64252;SDS011;50592;52.958;-7.470;2024-02-23T05:33:42;1.45;;;0.20;;
64252;SDS011;50592;52.958;-7.470;2024-02-23T05:36:20;1.13;;;0.32;;
64252;SDS011;50592;52.958;-7.470;2024-02-23T05:41:53;2.67;;;0.50;;
64252;SDS011;50592;52.958;-7.470;2024-02-23T05:44:58;0.55;;;0.30;;
64252;SDS011;50592;52.958;-7.470;2024-02-23T05:51:30;0.68;;;0.47;;
64252;SDS011;50592;52.958;-7.470;2024-02-23T05:57:50;0.80;;;0.50;;
64252;SDS011;50592;52.958;-7.470;2024-02-23T06:01:48;7.88;;;0.40;;
64252;SDS011;50592;52.958;-7.470;2024-02-23T06:19:29;4.43;;;0.52;;
64252;SDS011;50592;52.958;-7.470;2024-02-23T06:22:05;5.00;;;0.80;;
64252;SDS011;50592;52.958;-7.470;2024-02-23T06:24:43;3.55;;;0.57;;
64252;SDS011;50592;52.958;-7.470;2024-02-23T06:27:21;5.20;;;0.47;;
64252;SDS011;50592;52.958;-7.470;2024-02-23T06:29:47;2.03;;;0.70;;
64252;SDS011;50592;52.958;-7.470;2024-02-23T06:32:13;6.55;;;0.63;;
64252;SDS011;50592;52.958;-7.470;2024-02-23T07:02:19;1.63;;;0.20;;
64252;SDS011;50592;52.958;-7.470;2024-02-23T07:04:54;1.30;;;0.22;;
64252;SDS011;50592;52.958;-7.470;2024-02-23T07:07:31;1.25;;;0.50;;
64252;SDS011;50592;52.958;-7.470;2024-02-23T07:11:40;2.05;;;0.70;;
64252;SDS011;50592;52.958;-7.470;2024-02-23T07:21:31;3.05;;;0.30;;
64252;SDS011;50592;52.958;-7.470;2024-02-23T07:24:19;0.68;;;0.30;;
64252;SDS011;50592;52.958;-7.470;2024-02-23T07:29:57;1.48;;;0.40;;
64252;SDS011;50592;52.958;-7.470;2024-02-23T07:40:53;2.50;;;0.40;;
64252;SDS011;50592;52.958;-7.470;2024-02-23T07:44:31;2.78;;;0.50;;
64252;SDS011;50592;52.958;-7.470;2024-02-23T07:49:57;0.85;;;0.30;;
64252;SDS011;50592;52.958;-7.470;2024-02-23T07:52:36;3.30;;;0.30;;
64252;SDS011;50592;52.958;-7.470;2024-02-23T08:04:45;1.10;;;0.22;;
64252;SDS011;50592;52.958;-7.470;2024-02-23T08:16:55;2.10;;;0.25;;
64252;SDS011;50592;52.958;-7.470;2024-02-23T08:20:04;2.13;;;0.22;;
64252;SDS011;50592;52.958;-7.470;2024-02-23T08:23:19;1.40;;;0.40;;
64252;SDS011;50592;52.958;-7.470;2024-02-23T08:26:44;0.75;;;0.10;;
64252;SDS011;50592;52.958;-7.470;2024-02-23T08:30:28;3.33;;;0.25;;
64252;SDS011;50592;52.958;-7.470;2024-02-23T08:33:03;1.23;;;0.30;;
64252;SDS011;50592;52.958;-7.470;2024-02-23T08:36:31;1.40;;;0.20;;
64252;SDS011;50592;52.958;-7.470;2024-02-23T08:42:56;0.38;;;0.35;;
64252;SDS011;50592;52.958;-7.470;2024-02-23T08:49:34;2.65;;;0.28;;
64252;SDS011;50592;52.958;-7.470;2024-02-23T09:05:22;4.55;;;0.30;;
64252;SDS011;50592;52.958;-7.470;2024-02-23T09:11:14;0.30;;;0.20;;
64252;SDS011;50592;52.958;-7.470;2024-02-23T09:13:41;0.85;;;0.20;;
64252;SDS011;50592;52.958;-7.470;2024-02-23T09:16:16;1.75;;;0.20;;
64252;SDS011;50592;52.958;-7.470;2024-02-23T09:18:48;1.85;;;0.15;;
64252;SDS011;50592;52.958;-7.470;2024-02-23T09:21:14;0.50;;;0.20;;
64252;SDS011;50592;52.958;-7.470;2024-02-23T09:23:40;1.70;;;0.20;;
64252;SDS011;50592;52.958;-7.470;2024-02-23T09:34:46;2.28;;;0.35;;
64252;SDS011;50592;52.958;-7.470;2024-02-23T09:38:05;2.20;;;0.30;;
64252;SDS011;50592;52.958;-7.470;2024-02-23T09:40:32;1.38;;;0.25;;
64252;SDS011;50592;52.958;-7.470;2024-02-23T09:43:00;1.63;;;0.30;;
64252;SDS011;50592;52.958;-7.470;2024-02-23T09:45:27;1.88;;;0.35;;
64252;SDS011;50592;52.958;-7.470;2024-02-23T09:47:55;1.20;;;0.30;;
64252;SDS011;50592;52.958;-7.470;2024-02-23T09:50:23;2.63;;;0.30;;
64252;SDS011;50592;52.958;-7.470;2024-02-23T09:52:50;2.28;;;0.30;;
64252;SDS011;50592;52.958;-7.470;2024-02-23T09:55:21;1.85;;;0.32;;
64252;SDS011;50592;52.958;-7.470;2024-02-23T09:57:51;2.47;;;0.40;;
64252;SDS011;50592;52.958;-7.470;2024-02-23T10:00:29;4.30;;;0.40;;
64252;SDS011;50592;52.958;-7.470;2024-02-23T10:05:39;5.25;;;0.80;;
64252;SDS011;50592;52.958;-7.470;2024-02-23T10:08:05;3.67;;;0.50;;
64252;SDS011;50592;52.958;-7.470;2024-02-23T10:10:35;1.20;;;0.52;;
64252;SDS011;50592;52.958;-7.470;2024-02-23T10:13:05;5.68;;;0.98;;
64252;SDS011;50592;52.958;-7.470;2024-02-23T10:15:31;4.47;;;0.52;;
64252;SDS011;50592;52.958;-7.470;2024-02-23T10:17:57;4.25;;;0.50;;
64252;SDS011;50592;52.958;-7.470;2024-02-23T10:20:24;2.35;;;0.50;;
64252;SDS011;50592;52.958;-7.470;2024-02-23T10:22:50;2.72;;;0.68;;
64252;SDS011;50592;52.958;-7.470;2024-02-23T10:25:28;3.78;;;0.65;;
64252;SDS011;50592;52.958;-7.470;2024-02-23T10:27:58;3.45;;;0.70;;
64252;SDS011;50592;52.958;-7.470;2024-02-23T10:30:33;4.70;;;0.70;;
64252;SDS011;50592;52.958;-7.470;2024-02-23T10:33:02;2.78;;;0.60;;
64252;SDS011;50592;52.958;-7.470;2024-02-23T10:35:30;3.25;;;0.40;;
64252;SDS011;50592;52.958;-7.470;2024-02-23T10:38:01;4.05;;;0.95;;
64252;SDS011;50592;52.958;-7.470;2024-02-23T10:40:29;6.35;;;0.60;;
64252;SDS011;50592;52.958;-7.470;2024-02-23T10:42:56;2.97;;;0.60;;
64252;SDS011;50592;52.958;-7.470;2024-02-23T10:45:28;3.00;;;0.40;;
64252;SDS011;50592;52.958;-7.470;2024-02-23T10:48:01;5.65;;;0.68;;
64252;SDS011;50592;52.958;-7.470;2024-02-23T10:50:29;3.10;;;0.70;;
64252;SDS011;50592;52.958;-7.470;2024-02-23T10:52:58;2.92;;;0.60;;
64252;SDS011;50592;52.958;-7.470;2024-02-23T10:55:43;5.72;;;0.90;;
64252;SDS011;50592;52.958;-7.470;2024-02-23T10:58:11;1.60;;;0.50;;
64252;SDS011;50592;52.958;-7.470;2024-02-23T11:00:41;6.07;;;1.20;;
64252;SDS011;50592;52.958;-7.470;2024-02-23T11:04:08;9.45;;;2.28;;
64252;SDS011;50592;52.958;-7.470;2024-02-23T11:06:39;3.08;;;0.75;;
64252;SDS011;50592;52.958;-7.470;2024-02-23T11:09:12;7.57;;;0.80;;
64252;SDS011;50592;52.958;-7.470;2024-02-23T11:11:38;4.00;;;1.45;;
64252;SDS011;50592;52.958;-7.470;2024-02-23T11:14:07;2.95;;;0.50;;
64252;SDS011;50592;52.958;-7.470;2024-02-23T11:16:39;3.80;;;0.70;;
64252;SDS011;50592;52.958;-7.470;2024-02-23T11:19:11;2.35;;;0.50;;
64252;SDS011;50592;52.958;-7.470;2024-02-23T11:21:40;6.38;;;0.60;;
64252;SDS011;50592;52.958;-7.470;2024-02-23T11:24:06;3.95;;;0.60;;
64252;SDS011;50592;52.958;-7.470;2024-02-23T11:26:32;1.90;;;0.80;;
64252;SDS011;50592;52.958;-7.470;2024-02-23T11:29:11;2.38;;;0.35;;
64252;SDS011;50592;52.958;-7.470;2024-02-23T11:31:43;4.55;;;0.57;;
64252;SDS011;50592;52.958;-7.470;2024-02-23T11:34:11;0.90;;;0.20;;
64252;SDS011;50592;52.958;-7.470;2024-02-23T11:36:38;4.47;;;0.50;;
64252;SDS011;50592;52.958;-7.470;2024-02-23T11:39:04;3.08;;;0.77;;
64252;SDS011;50592;52.958;-7.470;2024-02-23T11:41:31;4.40;;;0.47;;
64252;SDS011;50592;52.958;-7.470;2024-02-23T11:44:01;6.72;;;0.63;;
64252;SDS011;50592;52.958;-7.470;2024-02-23T11:46:28;2.60;;;0.30;;
64252;SDS011;50592;52.958;-7.470;2024-02-23T11:48:54;4.63;;;0.50;;
64252;SDS011;50592;52.958;-7.470;2024-02-23T11:51:26;3.72;;;0.50;;
64252;SDS011;50592;52.958;-7.470;2024-02-23T11:53:55;7.00;;;0.60;;
64252;SDS011;50592;52.958;-7.470;2024-02-23T11:56:23;2.38;;;0.52;;
64252;SDS011;50592;52.958;-7.470;2024-02-23T11:58:50;5.00;;;0.45;;
64252;SDS011;50592;52.958;-7.470;2024-02-23T12:01:16;4.47;;;0.60;;
64252;SDS011;50592;52.958;-7.470;2024-02-23T12:03:44;4.22;;;0.95;;
64252;SDS011;50592;52.958;-7.470;2024-02-23T12:06:11;6.30;;;0.68;;
64252;SDS011;50592;52.958;-7.470;2024-02-23T12:08:42;4.97;;;0.50;;
64252;SDS011;50592;52.958;-7.470;2024-02-23T12:11:09;3.60;;;0.50;;
64252;SDS011;50592;52.958;-7.470;2024-02-23T12:13:35;1.20;;;0.43;;
64252;SDS011;50592;52.958;-7.470;2024-02-23T12:16:02;2.33;;;0.43;;
64252;SDS011;50592;52.958;-7.470;2024-02-23T12:18:35;3.50;;;0.70;;
64252;SDS011;50592;52.958;-7.470;2024-02-23T12:21:02;2.90;;;0.60;;
64252;SDS011;50592;52.958;-7.470;2024-02-23T12:24:06;1.90;;;0.50;;
64252;SDS011;50592;52.958;-7.470;2024-02-23T12:26:25;1.85;;;0.60;;
64252;SDS011;50592;52.958;-7.470;2024-02-23T12:28:51;2.30;;;0.77;;
64252;SDS011;50592;52.958;-7.470;2024-02-23T12:31:26;4.93;;;0.88;;
64252;SDS011;50592;52.958;-7.470;2024-02-23T12:33:54;5.10;;;0.70;;
64252;SDS011;50592;52.958;-7.470;2024-02-23T12:36:28;5.00;;;0.52;;
64252;SDS011;50592;52.958;-7.470;2024-02-23T12:39:01;7.00;;;1.67;;
64252;SDS011;50592;52.958;-7.470;2024-02-23T12:41:27;5.82;;;0.90;;
64252;SDS011;50592;52.958;-7.470;2024-02-23T12:43:53;8.00;;;0.90;;
64252;SDS011;50592;52.958;-7.470;2024-02-23T12:46:19;7.65;;;1.58;;
64252;SDS011;50592;52.958;-7.470;2024-02-23T12:48:45;14.18;;;1.58;;
64252;SDS011;50592;52.958;-7.470;2024-02-23T12:51:11;8.45;;;1.05;;
64252;SDS011;50592;52.958;-7.470;2024-02-23T12:53:41;5.25;;;1.30;;
64252;SDS011;50592;52.958;-7.470;2024-02-23T12:56:10;9.80;;;1.27;;
64252;SDS011;50592;52.958;-7.470;2024-02-23T13:01:35;6.07;;;1.30;;
64252;SDS011;50592;52.958;-7.470;2024-02-23T13:04:03;5.95;;;1.17;;
64252;SDS011;50592;52.958;-7.470;2024-02-23T13:06:37;6.22;;;1.52;;
64252;SDS011;50592;52.958;-7.470;2024-02-23T13:09:03;7.70;;;1.17;;
64252;SDS011;50592;52.958;-7.470;2024-02-23T13:11:30;12.27;;;1.77;;
64252;SDS011;50592;52.958;-7.470;2024-02-23T13:14:02;10.05;;;1.63;;
64252;SDS011;50592;52.958;-7.470;2024-02-23T13:16:37;6.03;;;1.77;;
64252;SDS011;50592;52.958;-7.470;2024-02-23T13:19:03;7.95;;;1.75;;
64252;SDS011;50592;52.958;-7.470;2024-02-23T13:21:30;9.40;;;1.13;;
64252;SDS011;50592;52.958;-7.470;2024-02-23T13:23:57;3.22;;;0.90;;
64252;SDS011;50592;52.958;-7.470;2024-02-23T13:26:23;4.63;;;0.85;;
64252;SDS011;50592;52.958;-7.470;2024-02-23T13:28:49;7.30;;;1.33;;
64252;SDS011;50592;52.958;-7.470;2024-02-23T13:31:16;8.93;;;2.15;;
64252;SDS011;50592;52.958;-7.470;2024-02-23T13:33:42;6.35;;;1.83;;
64252;SDS011;50592;52.958;-7.470;2024-02-23T13:36:10;6.97;;;2.38;;
64252;SDS011;50592;52.958;-7.470;2024-02-23T13:38:40;12.43;;;1.55;;
64252;SDS011;50592;52.958;-7.470;2024-02-23T13:41:12;5.88;;;1.05;;
64252;SDS011;50592;52.958;-7.470;2024-02-23T13:43:38;11.15;;;3.28;;
64252;SDS011;50592;52.958;-7.470;2024-02-23T13:46:09;13.15;;;4.32;;
64252;SDS011;50592;52.958;-7.470;2024-02-23T13:49:42;9.30;;;3.42;;
64252;SDS011;50592;52.958;-7.470;2024-02-23T13:52:09;8.73;;;2.90;;
64252;SDS011;50592;52.958;-7.470;2024-02-23T13:54:36;6.63;;;1.58;;
64252;SDS011;50592;52.958;-7.470;2024-02-23T13:57:02;11.13;;;3.33;;
64252;SDS011;50592;52.958;-7.470;2024-02-23T13:59:30;5.70;;;0.95;;
64252;SDS011;50592;52.958;-7.470;2024-02-23T14:01:59;6.75;;;1.15;;
64252;SDS011;50592;52.958;-7.470;2024-02-23T14:04:26;6.43;;;1.00;;
64252;SDS011;50592;52.958;-7.470;2024-02-23T14:06:54;7.88;;;1.23;;
64252;SDS011;50592;52.958;-7.470;2024-02-23T14:09:20;6.35;;;1.10;;
64252;SDS011;50592;52.958;-7.470;2024-02-23T14:11:47;6.63;;;1.40;;
64252;SDS011;50592;52.958;-7.470;2024-02-23T14:14:14;6.95;;;2.47;;
64252;SDS011;50592;52.958;-7.470;2024-02-23T14:16:40;13.10;;;1.42;;
64252;SDS011;50592;52.958;-7.470;2024-02-23T14:19:06;19.65;;;4.75;;
64252;SDS011;50592;52.958;-7.470;2024-02-23T14:21:35;9.00;;;2.70;;
64252;SDS011;50592;52.958;-7.470;2024-02-23T14:24:37;11.07;;;2.58;;
64252;SDS011;50592;52.958;-7.470;2024-02-23T14:27:11;7.00;;;1.50;;
64252;SDS011;50592;52.958;-7.470;2024-02-23T14:29:41;8.35;;;2.28;;
64252;SDS011;50592;52.958;-7.470;2024-02-23T14:32:33;5.53;;;1.10;;
64252;SDS011;50592;52.958;-7.470;2024-02-23T14:39:40;8.00;;;1.38;;
64252;SDS011;50592;52.958;-7.470;2024-02-23T14:42:06;10.23;;;1.58;;
64252;SDS011;50592;52.958;-7.470;2024-02-23T14:44:54;6.88;;;1.48;;
64252;SDS011;50592;52.958;-7.470;2024-02-23T14:47:20;6.45;;;0.82;;
64252;SDS011;50592;52.958;-7.470;2024-02-23T14:53:16;5.03;;;0.93;;
64252;SDS011;50592;52.958;-7.470;2024-02-23T15:00:20;5.75;;;1.17;;
64252;SDS011;50592;52.958;-7.470;2024-02-23T15:24:17;4.00;;;1.95;;
64252;SDS011;50592;52.958;-7.470;2024-02-23T15:26:43;6.68;;;0.90;;
64252;SDS011;50592;52.958;-7.470;2024-02-23T15:29:09;2.97;;;0.82;;
64252;SDS011;50592;52.958;-7.470;2024-02-23T15:31:35;5.68;;;1.88;;
64252;SDS011;50592;52.958;-7.470;2024-02-23T15:34:02;4.15;;;1.27;;
64252;SDS011;50592;52.958;-7.470;2024-02-23T15:36:28;3.28;;;0.90;;
64252;SDS011;50592;52.958;-7.470;2024-02-23T15:38:54;10.63;;;6.30;;
64252;SDS011;50592;52.958;-7.470;2024-02-23T15:41:24;10.93;;;4.35;;
64252;SDS011;50592;52.958;-7.470;2024-02-23T15:43:51;30.10;;;18.17;;
64252;SDS011;50592;52.958;-7.470;2024-02-23T15:46:16;7.72;;;4.20;;
64252;SDS011;50592;52.958;-7.470;2024-02-23T15:48:43;7.63;;;1.50;;
64252;SDS011;50592;52.958;-7.470;2024-02-23T15:51:09;4.15;;;1.48;;
64252;SDS011;50592;52.958;-7.470;2024-02-23T15:53:34;9.15;;;4.53;;
64252;SDS011;50592;52.958;-7.470;2024-02-23T15:56:01;11.32;;;5.38;;
64252;SDS011;50592;52.958;-7.470;2024-02-23T15:58:27;6.72;;;2.47;;
64252;SDS011;50592;52.958;-7.470;2024-02-23T16:00:53;5.22;;;2.15;;
64252;SDS011;50592;52.958;-7.470;2024-02-23T16:03:24;11.85;;;5.30;;
64252;SDS011;50592;52.958;-7.470;2024-02-23T16:05:50;11.77;;;2.85;;
64252;SDS011;50592;52.958;-7.470;2024-02-23T16:08:15;10.90;;;2.08;;
64252;SDS011;50592;52.958;-7.470;2024-02-23T16:10:41;10.57;;;4.22;;
64252;SDS011;50592;52.958;-7.470;2024-02-23T16:13:08;8.40;;;2.65;;
64252;SDS011;50592;52.958;-7.470;2024-02-23T16:15:34;13.82;;;4.65;;
64252;SDS011;50592;52.958;-7.470;2024-02-23T16:18:00;11.95;;;2.67;;
64252;SDS011;50592;52.958;-7.470;2024-02-23T16:20:26;13.48;;;5.65;;
64252;SDS011;50592;52.958;-7.470;2024-02-23T16:22:52;20.52;;;8.05;;
64252;SDS011;50592;52.958;-7.470;2024-02-23T16:25:18;6.40;;;2.38;;
64252;SDS011;50592;52.958;-7.470;2024-02-23T16:27:44;5.95;;;1.48;;
64252;SDS011;50592;52.958;-7.470;2024-02-23T16:30:11;6.53;;;1.58;;
64252;SDS011;50592;52.958;-7.470;2024-02-23T16:32:37;4.15;;;0.90;;
64252;SDS011;50592;52.958;-7.470;2024-02-23T16:35:04;6.80;;;2.25;;
64252;SDS011;50592;52.958;-7.470;2024-02-23T16:37:30;7.10;;;2.15;;
64252;SDS011;50592;52.958;-7.470;2024-02-23T16:39:57;6.38;;;1.15;;
64252;SDS011;50592;52.958;-7.470;2024-02-23T16:42:28;3.75;;;1.70;;
64252;SDS011;50592;52.958;-7.470;2024-02-23T16:44:54;5.13;;;0.68;;
64252;SDS011;50592;52.958;-7.470;2024-02-23T16:47:21;6.22;;;2.80;;
64252;SDS011;50592;52.958;-7.470;2024-02-23T16:49:47;6.13;;;1.02;;
64252;SDS011;50592;52.958;-7.470;2024-02-23T16:52:12;6.43;;;1.85;;
64252;SDS011;50592;52.958;-7.470;2024-02-23T16:54:38;5.40;;;0.82;;
64252;SDS011;50592;52.958;-7.470;2024-02-23T16:57:06;9.57;;;1.15;;
64252;SDS011;50592;52.958;-7.470;2024-02-23T16:59:32;9.18;;;1.20;;
64252;SDS011;50592;52.958;-7.470;2024-02-23T17:01:57;7.68;;;1.27;;
64252;SDS011;50592;52.958;-7.470;2024-02-23T17:04:23;5.88;;;1.17;;
64252;SDS011;50592;52.958;-7.470;2024-02-23T17:06:49;6.40;;;1.33;;
64252;SDS011;50592;52.958;-7.470;2024-02-23T17:09:18;6.53;;;0.80;;
64252;SDS011;50592;52.958;-7.470;2024-02-23T17:11:46;2.97;;;1.15;;
64252;SDS011;50592;52.958;-7.470;2024-02-23T17:14:12;6.25;;;1.45;;
64252;SDS011;50592;52.958;-7.470;2024-02-23T17:16:38;8.80;;;1.42;;
64252;SDS011;50592;52.958;-7.470;2024-02-23T17:19:04;8.05;;;1.00;;
64252;SDS011;50592;52.958;-7.470;2024-02-23T17:21:30;6.65;;;1.70;;
64252;SDS011;50592;52.958;-7.470;2024-02-23T17:23:56;7.10;;;1.60;;
64252;SDS011;50592;52.958;-7.470;2024-02-23T17:26:22;5.32;;;1.20;;
64252;SDS011;50592;52.958;-7.470;2024-02-23T17:28:48;9.32;;;3.08;;
64252;SDS011;50592;52.958;-7.470;2024-02-23T17:31:14;8.05;;;2.75;;
64252;SDS011;50592;52.958;-7.470;2024-02-23T17:33:40;10.77;;;2.13;;
64252;SDS011;50592;52.958;-7.470;2024-02-23T17:36:07;10.68;;;2.95;;
64252;SDS011;50592;52.958;-7.470;2024-02-23T17:38:36;7.82;;;3.58;;
64252;SDS011;50592;52.958;-7.470;2024-02-23T17:41:01;11.38;;;5.88;;
64252;SDS011;50592;52.958;-7.470;2024-02-23T17:43:27;11.68;;;3.05;;
64252;SDS011;50592;52.958;-7.470;2024-02-23T17:46:01;17.15;;;6.00;;
64252;SDS011;50592;52.958;-7.470;2024-02-23T17:48:35;12.73;;;6.05;;
64252;SDS011;50592;52.958;-7.470;2024-02-23T17:51:01;14.15;;;3.33;;
64252;SDS011;50592;52.958;-7.470;2024-02-23T17:53:27;18.73;;;10.27;;
64252;SDS011;50592;52.958;-7.470;2024-02-23T17:55:53;24.25;;;15.93;;
64252;SDS011;50592;52.958;-7.470;2024-02-23T17:58:23;14.75;;;8.73;;
64252;SDS011;50592;52.958;-7.470;2024-02-23T18:00:49;26.98;;;14.13;;
64252;SDS011;50592;52.958;-7.470;2024-02-23T18:03:16;23.92;;;13.85;;
64252;SDS011;50592;52.958;-7.470;2024-02-23T18:05:43;38.05;;;23.65;;
64252;SDS011;50592;52.958;-7.470;2024-02-23T18:08:09;25.60;;;13.85;;
64252;SDS011;50592;52.958;-7.470;2024-02-23T18:10:39;31.73;;;18.55;;
64252;SDS011;50592;52.958;-7.470;2024-02-23T18:13:07;34.25;;;23.17;;
64252;SDS011;50592;52.958;-7.470;2024-02-23T18:15:39;21.73;;;15.82;;
64252;SDS011;50592;52.958;-7.470;2024-02-23T18:18:05;16.10;;;7.38;;
64252;SDS011;50592;52.958;-7.470;2024-02-23T18:20:34;19.20;;;11.45;;
64252;SDS011;50592;52.958;-7.470;2024-02-23T18:23:02;23.15;;;13.00;;
64252;SDS011;50592;52.958;-7.470;2024-02-23T18:25:28;18.38;;;9.32;;
64252;SDS011;50592;52.958;-7.470;2024-02-23T18:27:56;13.02;;;6.50;;
64252;SDS011;50592;52.958;-7.470;2024-02-23T18:30:32;10.10;;;3.72;;
64252;SDS011;50592;52.958;-7.470;2024-02-23T18:32:58;12.07;;;4.95;;
64252;SDS011;50592;52.958;-7.470;2024-02-23T18:35:27;19.58;;;8.35;;
64252;SDS011;50592;52.958;-7.470;2024-02-23T18:37:55;82.57;;;37.63;;
64252;SDS011;50592;52.958;-7.470;2024-02-23T18:40:55;23.60;;;11.05;;
64252;SDS011;50592;52.958;-7.470;2024-02-23T18:43:26;9.05;;;4.70;;
64252;SDS011;50592;52.958;-7.470;2024-02-23T18:45:52;12.25;;;7.10;;
64252;SDS011;50592;52.958;-7.470;2024-02-23T18:48:25;20.15;;;10.27;;
64252;SDS011;50592;52.958;-7.470;2024-02-23T18:53:26;31.10;;;15.73;;
64252;SDS011;50592;52.958;-7.470;2024-02-23T18:56:06;72.80;;;34.05;;
64252;SDS011;50592;52.958;-7.470;2024-02-23T18:58:55;10.32;;;4.00;;
64252;SDS011;50592;52.958;-7.470;2024-02-23T19:01:22;23.25;;;9.25;;
64252;SDS011;50592;52.958;-7.470;2024-02-23T19:03:48;34.55;;;16.88;;
64252;SDS011;50592;52.958;-7.470;2024-02-23T19:06:14;13.52;;;6.35;;
64252;SDS011;50592;52.958;-7.470;2024-02-23T19:08:43;11.18;;;5.03;;
64252;SDS011;50592;52.958;-7.470;2024-02-23T19:11:17;7.07;;;3.25;;
64252;SDS011;50592;52.958;-7.470;2024-02-23T19:13:43;17.05;;;8.32;;
64252;SDS011;50592;52.958;-7.470;2024-02-23T19:16:12;12.07;;;3.75;;
64252;SDS011;50592;52.958;-7.470;2024-02-23T19:18:39;14.82;;;7.25;;
64252;SDS011;50592;52.958;-7.470;2024-02-23T19:21:05;19.95;;;8.10;;
64252;SDS011;50592;52.958;-7.470;2024-02-23T19:23:31;30.83;;;17.00;;
64252;SDS011;50592;52.958;-7.470;2024-02-23T19:25:58;14.38;;;6.20;;
64252;SDS011;50592;52.958;-7.470;2024-02-23T19:28:24;12.23;;;4.28;;
64252;SDS011;50592;52.958;-7.470;2024-02-23T19:30:50;19.40;;;12.43;;